Terminal Aerodrome Forecast
Issued by NWS

Home | Current Version | Previous Version | Text Only | Print | Product List | Glossary On
Versions: 1 2 3 4 5 6 7 8 9 10 11 12 13 14 15 16 17 18 19 20 21 22 23 24 25 26 27 28 29
000
FTUS44 KFWD 270903 AAB
TAFGKY
TAF AMD
KGKY 270903Z 2709/2806 17016KT P6SM -RA VCTS SCT015 BKN150CB
      TEMPO 2709/2713 4SM TSRA BKN015CB
     FM271500 17015KT P6SM OVC025
     FM272100 17015G25KT P6SM VCTS OVC030CB
     FM280100 17017KT P6SM SCT040=

USA.gov is the U.S. government's official web portal to all federal, state and local government web resources and services.